Kamp-Lintfort Airport

EDLC · North Rhine-Westphalia, 德国

罗盘
风向 的 风向 的 风向 到 风向 020° Kamp-Lintfort Airport 7/25
风: 4 kt, 2 beaufort

3 kt

3 kt
改变
0 1.000 2.000 3.000 4.000 5.000
SCT 1.000 ft
BKN 2.000 ft
OVC 2.600 ft
METAR EDLV 010920Z 02004KT 330V100 6000 SCT010 BKN020 OVC026 06/04 Q1028

METAR Kamp-Lintfort Airport - EDLC

Kamp-Lintfort Airport是,德国中的小机场。 该机场有一条跑道: 7/25. 该领域的国际民航组织标志是EDLC.

这份报告是针对2022年12月1日 10:20, 当地时间在Weeze Airport进行的。

机场观察

风向为020°,速度为4 kt。 风向在330°和100°之间变化。

可见度为6 km。

有疏云,零星散落的云朵在1.000 ft的高度, 碎云在2.000 ft的高度 和 乌云密布在2.600 ft的高度。 破损或更高的上限为2.000 ft。

温度为6 °C,阵风为3 °C。 露点为4 °C,相对湿度为87%。 海平面上的气压为1028 hPa (QNH)。

白天

今天,太阳从08:17升起,在16:28降落。 这适用于Kamp-Lintfort Airport,世界夏令时可能有所不同。 当地时间与世界标准时间之间的时差为+1 小时。 当前,没有夏令时有效。

公司介绍

我们没有关于这个机场的公司信息。

体会

到Vliegles.nl去找飞行课程,跳伞和其他飞行体验。 浏览页面,了解Kamp-Lintfort Airport附近所有可用的活动。 你也可以使用搜索功能来寻找你所在地附近的特定飞行课程、跳伞或其他飞行体验。

跑道

Id 标题 侧风 逆风 侧风 %
7/25 070°-250° 3 kt 3 kt 77 %

逆风成分最大的方向会被突出显示,并用于横风计算。 这并不一定意味着这个方向在使用。

乌云

1.000 ft SCT 疏云,零星散落的云朵
2.000 ft BKN 碎云
2.600 ft OVC 乌云密布

温度 & 天气

温度 6 °C
露点 4 °C
相对湿度 87%
风寒 3 °C
Kp-index 3 (0-9)

白天

日出
08:19
中午
12:24
日落
16:29 (5:50)

小工具

你想在你的网站上有一个关于Kamp-Lintfort Airport的当前航空天气(METAR)的小部件吗?

显示HTML代码

我们和第三方通过cookies跟踪您在我们网站上的互联网行为。如果你继续,我们认为你同意我们的饼干政策